Villas de Parana, Puerto Rico
Current Conditions -  °F | °C
As of 2:56 PM on Thursday 18 Dec 2014 (Local Time) from TJSJ Reporting Station
Scattered Clouds Scattered Clouds  
Wind Chill: 80°   Ceiling: Unl
Heat Index: 84°   Visibility: 10mi
Dew Point: 71°   Wind: 8mph
Humidity: 74%   Direction: 20°NNE
Pressure: 29.97"   Gusts: NA
Location:  18.3754°N, 66.0577°W
Report Text: TJSJ 181856Z 02007KT 10SM SCT033 SCT065 SCT090 27/22 A2997 RMK AO2 SLP149 SHRA DSNT W T02670217
Loading
Personal Weather Stations






























Interactive Weather Map New forecast layout! Learn more

10-Day Weather Forecast

Advertisements
Track Severe Weather on mobile